Time;durP1;ratioP1;P1;durP2;ratioP2;P2;SDS_P1;SDS_P2;PMS_P1;PMS_P2;Temp;Humidity;BMP_temperature;BMP_pressure;BME280_temperature;BME280_humidity;BME280_pressure;Samples;Min_cycle;Max_cycle;Signal;HPM_P1;HPM_P2
2022/05/27 00:01:21;;;;;;;10.33;7.60;;;15.60;99.90;;;;;;5048807;28;20212;-75
2022/05/27 00:03:49;;;;;;;7.80;7.00;;;15.30;99.90;;;;;;5051359;28;20192;-75
2022/05/27 00:06:15;;;;;;;9.77;8.77;;;15.10;99.90;;;;;;5050964;28;20631;-76
2022/05/27 00:08:42;;;;;;;11.40;9.50;;;14.80;99.90;;;;;;5059195;28;20674;-75
2022/05/27 00:11:10;;;;;;;10.57;9.40;;;14.80;99.90;;;;;;5070974;28;20260;-74
2022/05/27 00:13:37;;;;;;;10.83;9.83;;;14.80;99.90;;;;;;5071037;28;20222;-75
2022/05/27 00:16:07;;;;;;;11.57;10.43;;;14.60;99.90;;;;;;5070883;28;20231;-75
2022/05/27 00:18:36;;;;;;;12.57;11.03;;;14.50;99.90;;;;;;5071033;28;20207;-77
2022/05/27 00:21:06;;;;;;;10.60;9.53;;;14.60;99.90;;;;;;5061490;28;20703;-76
2022/05/27 00:23:47;;;;;;;11.10;9.93;;;14.70;99.90;;;;;;5050913;28;20632;-76
2022/05/27 00:26:18;;;;;;;11.33;10.13;;;14.70;99.90;;;;;;5050881;28;20204;-78
2022/05/27 00:28:44;;;;;;;10.20;9.17;;;14.60;99.90;;;;;;5059903;28;20203;-78
2022/05/27 00:31:11;;;;;;;10.00;9.00;;;14.70;99.90;;;;;;5071057;28;20272;-78
2022/05/27 00:33:48;;;;;;;9.27;8.37;;;14.70;99.90;;;;;;5070636;28;20215;-78
2022/05/27 00:36:16;;;;;;;10.07;9.00;;;14.60;99.90;;;;;;5063977;28;20223;-78
2022/05/27 00:38:45;;;;;;;9.93;8.97;;;14.60;99.90;;;;;;5049933;28;20345;-76
2022/05/27 00:41:13;;;;;;;9.40;8.63;;;14.50;99.90;;;;;;5050279;28;20246;-77
2022/05/27 00:43:43;;;;;;;9.73;8.93;;;14.50;99.90;;;;;;5050141;28;20200;-77
2022/05/27 00:46:31;;;;;;;8.77;8.07;;;14.50;99.90;;;;;;5050647;28;20200;-77
2022/05/27 00:49:07;;;;;;;9.27;8.50;;;14.50;99.90;;;;;;5050542;28;20213;-77
2022/05/27 00:51:41;;;;;;;9.57;8.57;;;14.50;99.90;;;;;;5050547;28;20246;-77
2022/05/27 00:54:26;;;;;;;9.80;8.87;;;14.40;99.90;;;;;;5050344;28;20260;-77
2022/05/27 00:57:01;;;;;;;10.67;9.67;;;14.40;99.90;;;;;;5053988;28;20207;-77
2022/05/27 00:59:35;;;;;;;9.63;8.83;;;14.50;99.90;;;;;;5069104;28;20264;-77
2022/05/27 01:02:01;;;;;;;10.20;9.33;;;14.40;99.90;;;;;;5058792;28;20231;-77
2022/05/27 01:04:29;;;;;;;9.57;8.67;;;14.40;99.90;;;;;;5070077;28;20249;-77
2022/05/27 01:07:13;;;;;;;9.27;8.47;;;14.60;99.90;;;;;;5070127;28;20215;-77
2022/05/27 01:09:43;;;;;;;10.00;9.10;;;14.50;99.90;;;;;;5069910;28;20195;-77
2022/05/27 01:12:34;;;;;;;10.30;9.40;;;14.50;99.90;;;;;;5070383;28;20608;-80
2022/05/27 01:15:22;;;;;;;11.13;10.00;;;14.70;99.90;;;;;;5057174;28;20220;-80
2022/05/27 01:18:00;;;;;;;12.33;11.23;;;14.50;99.90;;;;;;5062681;28;20219;-80
2022/05/27 01:20:40;;;;;;;12.33;11.23;;;14.50;99.90;;;;;;5066173;28;20675;-80
2022/05/27 01:23:55;;;;;;;12.20;11.10;;;14.50;99.90;;;;;;5049854;28;20192;-78
2022/05/27 01:26:42;;;;;;;12.90;11.70;;;14.50;99.90;;;;;;5049946;28;20204;-80
2022/05/27 01:29:51;;;;;;;13.60;12.27;;;14.50;99.90;;;;;;5050108;28;20246;-80
2022/05/27 01:32:24;;;;;;;14.20;12.97;;;14.40;99.90;;;;;;5042896;28;20199;-80
2022/05/27 01:34:58;;;;;;;14.27;12.97;;;14.50;99.90;;;;;;5069829;28;20253;-80
2022/05/27 01:37:34;;;;;;;13.63;12.43;;;14.50;99.90;;;;;;5069894;28;20191;-79
2022/05/27 01:40:09;;;;;;;14.47;13.10;;;14.50;99.90;;;;;;5069449;28;20246;-78
2022/05/27 01:42:43;;;;;;;13.73;12.53;;;14.50;99.90;;;;;;5069485;28;20234;-78
2022/05/27 01:45:18;;;;;;;15.07;13.43;;;14.50;99.90;;;;;;5069736;28;20196;-78
2022/05/27 01:47:53;;;;;;;13.37;12.17;;;14.50;99.90;;;;;;5059833;28;20211;-78
2022/05/27 01:50:33;;;;;;;13.67;12.37;;;14.60;99.90;;;;;;5049445;28;20286;-79
2022/05/27 01:53:06;;;;;;;12.60;11.40;;;14.70;99.90;;;;;;5049169;28;20202;-79
2022/05/27 01:55:39;;;;;;;13.27;11.97;;;14.70;99.90;;;;;;5049493;28;20259;-79
2022/05/27 01:58:11;;;;;;;13.20;12.00;;;14.60;99.90;;;;;;5052003;28;20210;-79
2022/05/27 02:00:40;;;;;;;12.53;11.43;;;14.60;99.90;;;;;;5049330;28;20693;-78
2022/05/27 02:03:13;;;;;;;13.07;11.93;;;14.60;99.90;;;;;;5049268;28;20227;-78
2022/05/27 02:05:47;;;;;;;12.93;11.83;;;14.70;99.90;;;;;;5049578;28;20642;-78
2022/05/27 02:08:18;;;;;;;13.27;11.97;;;14.60;99.90;;;;;;5048966;28;20195;-80
2022/05/27 02:10:54;;;;;;;12.43;11.33;;;14.70;99.90;;;;;;5048924;28;20261;-79
2022/05/27 02:13:28;;;;;;;12.60;11.50;;;14.60;99.90;;;;;;5048898;28;20265;-78
2022/05/27 02:15:57;;;;;;;13.50;12.20;;;14.60;99.90;;;;;;5048642;28;20277;-78
2022/05/27 02:18:31;;;;;;;13.20;11.17;;;14.70;99.90;;;;;;5063817;28;20211;-78
2022/05/27 02:21:03;;;;;;;13.80;12.40;;;14.70;99.90;;;;;;5068566;28;20237;-79
2022/05/27 02:23:36;;;;;;;13.43;12.13;;;14.60;99.90;;;;;;5048333;28;20219;-78
2022/05/27 02:26:14;;;;;;;12.07;10.87;;;14.60;99.90;;;;;;5048482;28;20650;-78
2022/05/27 02:28:46;;;;;;;11.47;10.50;;;14.60;99.90;;;;;;5048875;28;20192;-76
2022/05/27 02:31:17;;;;;;;10.27;9.47;;;14.60;99.90;;;;;;5048884;28;20229;-76
2022/05/27 02:36:53;;;;;;;9.90;9.10;;;14.60;99.90;;;;;;5048434;28;20222;-80
2022/05/27 02:39:22;;;;;;;9.90;9.07;;;14.60;99.90;;;;;;5048449;28;20569;-80
2022/05/27 02:41:57;;;;;;;8.83;8.23;;;14.60;99.90;;;;;;5047982;28;20262;-80
2022/05/27 02:44:36;;;;;;;8.23;7.60;;;14.60;99.90;;;;;;5058490;28;20725;-75
2022/05/27 02:47:09;;;;;;;8.77;7.97;;;14.60;99.90;;;;;;5064065;28;20207;-75
2022/05/27 02:49:48;;;;;;;8.27;7.57;;;14.60;99.90;;;;;;5048104;28;20223;-75
2022/05/27 02:52:26;;;;;;;8.43;7.73;;;14.60;99.90;;;;;;5048089;28;20254;-75
2022/05/27 02:55:01;;;;;;;8.60;7.90;;;14.60;99.90;;;;;;5048737;28;20298;-75
2022/05/27 02:57:44;;;;;;;8.53;7.83;;;14.50;99.90;;;;;;5047842;28;20234;-75
2022/05/27 03:00:16;;;;;;;7.63;7.03;;;14.60;99.90;;;;;;5066278;28;20208;-80
2022/05/27 03:02:46;;;;;;;7.13;6.67;;;14.60;99.90;;;;;;5068100;28;20187;-79
2022/05/27 03:05:22;;;;;;;7.73;7.13;;;14.60;99.90;;;;;;5067830;28;20286;-79
2022/05/27 03:08:12;;;;;;;10.43;7.40;;;14.60;99.90;;;;;;5068010;28;20241;-79
2022/05/27 03:10:52;;;;;;;8.03;7.33;;;14.60;99.90;;;;;;5048319;28;20199;-80
2022/05/27 03:13:50;;;;;;;8.03;7.33;;;14.60;99.90;;;;;;5065385;28;20187;-80
2022/05/27 03:16:29;;;;;;;7.93;7.27;;;14.60;99.90;;;;;;5064071;28;20220;-80
2022/05/27 03:19:38;;;;;;;8.10;7.50;;;14.60;99.90;;;;;;5067295;28;20214;-78
2022/05/27 03:22:15;;;;;;;8.40;7.33;;;14.60;99.90;;;;;;5051224;28;20211;-77
2022/05/27 03:24:55;;;;;;;9.33;8.50;;;14.70;99.90;;;;;;5067891;28;20253;-77
2022/05/27 03:27:29;;;;;;;8.93;7.97;;;14.60;99.90;;;;;;5067466;28;20999;-78
2022/05/27 03:30:04;;;;;;;8.37;7.70;;;14.70;99.90;;;;;;5067830;28;20299;-78
2022/05/27 03:32:43;;;;;;;8.87;8.10;;;14.70;99.90;;;;;;5067943;28;20252;-78
2022/05/27 03:35:23;;;;;;;9.10;8.07;;;14.60;99.90;;;;;;5068127;28;20268;-78
2022/05/27 03:37:57;;;;;;;8.87;8.13;;;14.60;99.90;;;;;;5071999;28;20256;-78
2022/05/27 03:40:26;;;;;;;10.03;9.07;;;14.70;99.90;;;;;;5071327;28;20194;-77
2022/05/27 03:42:54;;;;;;;9.63;8.80;;;14.70;99.90;;;;;;5071807;28;20253;-78
2022/05/27 03:45:23;;;;;;;9.30;8.50;;;14.70;99.90;;;;;;5071654;28;20200;-78
2022/05/27 03:47:51;;;;;;;9.67;8.67;;;14.60;99.90;;;;;;5071676;28;20211;-77
2022/05/27 03:50:21;;;;;;;11.47;9.83;;;14.70;99.90;;;;;;5071566;28;20223;-78
2022/05/27 03:52:52;;;;;;;10.60;9.60;;;14.70;99.90;;;;;;5071731;28;20207;-76
2022/05/27 03:55:21;;;;;;;9.40;8.47;;;14.60;99.90;;;;;;5071114;28;20685;-75
2022/05/27 03:57:48;;;;;;;10.33;9.20;;;14.60;99.90;;;;;;5071114;28;20239;-76
2022/05/27 04:00:16;;;;;;;10.77;8.77;;;14.60;99.90;;;;;;5071399;28;20207;-76
2022/05/27 04:02:44;;;;;;;11.47;9.33;;;14.60;99.90;;;;;;5071180;28;20222;-75
2022/05/27 04:05:13;;;;;;;10.43;9.10;;;14.60;99.90;;;;;;5066957;28;20204;-76
2022/05/27 04:07:39;;;;;;;9.80;8.83;;;14.70;99.90;;;;;;5051148;28;20250;-76
2022/05/27 04:10:08;;;;;;;9.93;9.00;;;14.70;99.90;;;;;;5050637;28;20845;-75
2022/05/27 04:12:35;;;;;;;9.10;8.17;;;14.70;99.90;;;;;;5051220;28;20266;-76
2022/05/27 04:15:02;;;;;;;8.70;8.00;;;14.70;99.90;;;;;;5069977;28;20674;-77
2022/05/27 04:17:30;;;;;;;9.40;8.60;;;14.80;99.90;;;;;;5063556;28;20232;-77
2022/05/27 04:19:57;;;;;;;8.90;8.10;;;14.70;99.90;;;;;;5051050;28;20208;-77
2022/05/27 04:22:24;;;;;;;9.00;8.20;;;14.70;99.90;;;;;;5050805;28;20662;-78
2022/05/27 04:24:51;;;;;;;8.33;7.53;;;14.70;99.90;;;;;;5050607;28;20204;-79
2022/05/27 04:27:19;;;;;;;9.07;8.23;;;14.70;99.90;;;;;;5050863;28;20208;-78
2022/05/27 04:29:48;;;;;;;8.93;8.13;;;14.80;99.90;;;;;;5050662;28;20546;-78
2022/05/27 04:32:16;;;;;;;10.10;9.13;;;14.80;99.90;;;;;;5050827;28;20644;-76
2022/05/27 04:34:43;;;;;;;10.10;9.00;;;14.70;99.90;;;;;;5063460;28;20744;-78
2022/05/27 04:37:11;;;;;;;9.90;8.90;;;14.70;99.90;;;;;;5070599;28;20235;-78
2022/05/27 04:39:38;;;;;;;10.10;9.23;;;14.60;99.90;;;;;;5070176;28;20669;-76
2022/05/27 04:42:06;;;;;;;9.07;8.27;;;14.60;99.90;;;;;;5069874;28;20288;-77
2022/05/27 04:44:34;;;;;;;10.97;8.57;;;14.60;99.90;;;;;;5070534;28;21067;-79
2022/05/27 04:47:01;;;;;;;9.23;8.50;;;14.60;99.90;;;;;;5061110;28;20212;-78
2022/05/27 04:52:13;;;;;;;9.53;8.57;;;14.70;99.90;;;;;;5064249;28;20575;-79
2022/05/27 04:54:40;;;;;;;10.13;8.77;;;14.70;99.90;;;;;;5070308;28;20214;-78
2022/05/27 04:57:07;;;;;;;9.80;8.70;;;14.70;99.90;;;;;;5070238;28;20235;-78
2022/05/27 04:59:39;;;;;;;9.00;8.20;;;14.70;99.90;;;;;;5070510;28;20249;-79
2022/05/27 05:02:06;;;;;;;10.53;8.73;;;14.70;99.90;;;;;;5069604;28;20288;-78
2022/05/27 05:04:32;;;;;;;9.80;8.90;;;14.70;99.90;;;;;;5070525;28;20203;-78
2022/05/27 05:07:03;;;;;;;9.47;8.43;;;14.60;99.90;;;;;;5070016;28;20212;-78
2022/05/27 05:09:32;;;;;;;9.50;8.60;;;14.60;99.90;;;;;;5070197;28;20203;-78
2022/05/27 05:11:59;;;;;;;9.60;8.70;;;14.60;99.90;;;;;;5069920;28;20200;-80
2022/05/27 05:14:26;;;;;;;10.03;9.07;;;14.50;99.90;;;;;;5070171;28;20207;-80
2022/05/27 05:16:54;;;;;;;11.53;8.97;;;14.50;99.90;;;;;;5062873;28;20258;-80
2022/05/27 05:19:20;;;;;;;13.03;8.70;;;14.60;99.90;;;;;;5071258;28;20247;-82
2022/05/27 05:21:47;;;;;;;10.93;9.77;;;14.50;99.90;;;;;;5069831;28;20204;-82
2022/05/27 05:24:13;;;;;;;8.47;7.83;;;14.50;99.90;;;;;;5069767;28;20210;-76
2022/05/27 05:26:40;;;;;;;9.90;8.17;;;14.50;99.90;;;;;;5069813;28;20246;-76
2022/05/27 05:29:07;;;;;;;7.40;6.70;;;14.40;99.90;;;;;;5069312;28;20207;-76
2022/05/27 05:31:34;;;;;;;9.47;7.00;;;14.40;99.90;;;;;;5069646;28;20204;-76
2022/05/27 05:34:02;;;;;;;9.53;6.63;;;14.40;99.90;;;;;;5069329;28;20289;-76
2022/05/27 05:36:29;;;;;;;7.70;5.40;;;14.40;99.90;;;;;;5069465;28;20231;-80
2022/05/27 05:38:56;;;;;;;6.73;5.67;;;14.40;99.90;;;;;;5069037;28;20203;-76
2022/05/27 05:41:27;;;;;;;6.20;4.73;;;14.30;99.90;;;;;;5057843;28;20643;-76
2022/05/27 05:43:54;;;;;;;8.23;4.33;;;14.30;99.90;;;;;;5052091;28;20208;-77
2022/05/27 05:46:21;;;;;;;4.97;4.53;;;14.40;99.90;;;;;;5049401;28;20269;-75
2022/05/27 05:48:48;;;;;;;6.60;4.97;;;14.40;99.90;;;;;;5067124;28;20261;-76
2022/05/27 05:51:16;;;;;;;5.27;3.40;;;14.40;99.90;;;;;;5069439;28;20210;-76
2022/05/27 05:53:42;;;;;;;3.77;3.47;;;14.30;99.90;;;;;;5068826;28;20253;-75
2022/05/27 05:56:09;;;;;;;5.87;4.13;;;14.40;99.90;;;;;;5069101;28;20207;-76
2022/05/27 05:58:37;;;;;;;7.07;5.50;;;14.30;99.90;;;;;;5068279;28;20207;-75
2022/05/27 06:01:06;;;;;;;4.13;3.63;;;14.30;99.90;;;;;;5068598;28;20665;-75
2022/05/27 06:03:33;;;;;;;5.60;3.73;;;14.30;99.90;;;;;;5053825;28;20211;-78
2022/05/27 06:06:00;;;;;;;3.63;2.70;;;14.20;99.90;;;;;;5055427;28;20277;-78
2022/05/27 06:08:28;;;;;;;5.80;3.10;;;14.10;99.90;;;;;;5069045;28;20210;-77
2022/05/27 06:10:55;;;;;;;3.77;2.30;;;14.00;99.90;;;;;;5069087;28;20273;-78
2022/05/27 06:13:22;;;;;;;3.00;2.80;;;13.90;99.90;;;;;;5068865;28;20850;-78
2022/05/27 06:15:48;;;;;;;3.73;2.60;;;14.00;99.90;;;;;;5069711;28;20203;-82
2022/05/27 06:18:15;;;;;;;2.80;2.60;;;14.00;99.90;;;;;;5056243;28;20235;-76
2022/05/27 06:20:42;;;;;;;3.73;2.43;;;14.00;99.90;;;;;;5068777;28;20255;-76
2022/05/27 06:23:09;;;;;;;2.70;2.30;;;14.00;99.90;;;;;;5068788;28;20286;-76
2022/05/27 06:25:38;;;;;;;4.90;2.80;;;14.00;99.90;;;;;;5055588;28;20208;-74
2022/05/27 06:36:16;;;;;;;3.40;2.37;;;14.20;99.90;;;;;;5048902;28;20262;-76
2022/05/27 06:38:43;;;;;;;5.53;2.60;;;14.30;99.90;;;;;;5068326;28;20222;-76
2022/05/27 06:41:11;;;;;;;3.93;2.47;;;14.20;99.90;;;;;;5049199;28;20267;-76
2022/05/27 06:43:37;;;;;;;3.97;2.30;;;14.30;99.90;;;;;;5053369;28;20195;-76
2022/05/27 06:46:05;;;;;;;2.83;2.20;;;14.30;99.90;;;;;;5063770;28;20199;-75
2022/05/27 06:48:31;;;;;;;3.10;2.33;;;14.40;99.90;;;;;;5053244;28;20666;-78
2022/05/27 06:51:06;;;;;;;2.90;2.10;;;14.50;99.90;;;;;;5048405;28;20240;-77
2022/05/27 06:53:33;;;;;;;2.57;1.90;;;14.60;99.90;;;;;;5052287;28;20539;-76
2022/05/27 06:56:00;;;;;;;2.30;2.20;;;14.60;99.90;;;;;;5067814;28;20207;-76
2022/05/27 06:58:28;;;;;;;4.60;2.53;;;14.70;99.90;;;;;;5057855;28;20278;-76
2022/05/27 07:00:55;;;;;;;5.57;4.10;;;14.70;99.90;;;;;;5056414;28;20638;-75
2022/05/27 07:03:21;;;;;;;4.17;2.43;;;14.60;99.90;;;;;;5061217;28;20587;-76
2022/05/27 07:05:48;;;;;;;4.13;2.20;;;14.60;99.90;;;;;;5063834;28;20211;-75
2022/05/27 07:08:15;;;;;;;3.13;2.23;;;14.60;99.90;;;;;;5045293;28;20725;-74
2022/05/27 07:10:42;;;;;;;2.57;2.20;;;14.60;99.90;;;;;;5045245;28;20950;-76
2022/05/27 07:13:09;;;;;;;5.30;2.27;;;14.70;99.90;;;;;;5049984;28;20752;-76
2022/05/27 07:15:37;;;;;;;4.27;2.30;;;14.60;99.90;;;;;;5045257;28;20258;-76
2022/05/27 07:18:04;;;;;;;6.63;2.00;;;14.60;99.90;;;;;;5056992;28;20752;-76
2022/05/27 07:20:31;;;;;;;2.97;2.17;;;14.70;99.90;;;;;;5058098;28;20235;-76
2022/05/27 07:22:57;;;;;;;6.20;2.00;;;14.70;99.90;;;;;;5052636;28;20249;-74
2022/05/27 07:25:24;;;;;;;4.03;2.03;;;14.80;99.90;;;;;;5045509;28;20703;-74
2022/05/27 07:27:54;;;;;;;6.37;2.53;;;14.80;99.90;;;;;;5062780;28;20245;-76
2022/05/27 07:30:21;;;;;;;4.90;2.00;;;14.80;99.90;;;;;;5065514;28;20204;-76
2022/05/27 07:32:49;;;;;;;4.50;2.27;;;14.90;99.90;;;;;;5063979;28;20248;-75
2022/05/27 07:35:16;;;;;;;2.80;2.20;;;14.90;99.90;;;;;;5065441;28;20204;-75
2022/05/27 07:37:42;;;;;;;4.00;2.27;;;14.90;99.90;;;;;;5065562;28;20249;-75
2022/05/27 07:40:10;;;;;;;4.23;1.90;;;15.00;99.90;;;;;;5064526;28;20208;-76
2022/05/27 07:42:39;;;;;;;4.67;1.70;;;15.10;99.90;;;;;;5056593;28;20754;-74
2022/05/27 07:45:07;;;;;;;3.33;1.53;;;15.10;99.90;;;;;;5058666;28;20211;-75
2022/05/27 07:47:34;;;;;;;3.20;1.90;;;15.10;99.90;;;;;;5065382;28;20211;-75
2022/05/27 07:50:02;;;;;;;6.23;2.00;;;15.10;99.90;;;;;;5058517;28;20715;-75
2022/05/27 07:52:32;;;;;;;2.67;1.53;;;15.20;99.90;;;;;;5044777;28;20277;-75
2022/05/27 07:54:59;;;;;;;4.13;1.83;;;15.30;99.90;;;;;;5059513;28;20774;-75
2022/05/27 07:57:27;;;;;;;5.27;1.80;;;15.40;99.90;;;;;;5064726;28;20580;-74
2022/05/27 08:00:00;;;;;;;3.47;2.07;;;15.40;99.90;;;;;;5064808;28;20207;-75
2022/05/27 08:02:27;;;;;;;5.07;1.67;;;15.40;99.90;;;;;;5064977;28;20239;-75
2022/05/27 08:04:54;;;;;;;2.37;1.47;;;15.40;99.90;;;;;;5044980;28;20930;-75
2022/05/27 08:07:22;;;;;;;4.20;1.80;;;15.40;99.90;;;;;;5045324;28;20740;-75
2022/05/27 08:09:49;;;;;;;5.07;1.57;;;15.40;99.90;;;;;;5044941;28;20208;-75
2022/05/27 08:12:15;;;;;;;5.93;1.80;;;15.30;99.90;;;;;;5045582;28;20283;-75
2022/05/27 08:14:42;;;;;;;3.37;1.63;;;15.40;99.90;;;;;;5045922;28;20556;-75
2022/05/27 08:17:09;;;;;;;4.67;1.50;;;15.50;99.90;;;;;;5049932;28;20298;-75
2022/05/27 08:19:35;;;;;;;5.20;1.67;;;15.60;99.90;;;;;;5047206;28;20208;-76
2022/05/27 08:22:02;;;;;;;6.03;1.90;;;15.80;99.90;;;;;;5062687;28;20203;-75
2022/05/27 08:24:31;;;;;;;3.93;1.80;;;15.80;99.90;;;;;;5067561;28;20213;-75
2022/05/27 08:26:58;;;;;;;3.57;1.90;;;15.90;99.90;;;;;;5068256;28;20267;-75
2022/05/27 08:29:24;;;;;;;3.63;1.80;;;16.00;99.90;;;;;;5068347;28;20207;-75
2022/05/27 08:31:51;;;;;;;4.37;1.77;;;16.00;99.90;;;;;;5062225;28;20653;-75
2022/05/27 08:39:47;;;;;;;3.40;1.70;;;16.00;99.90;;;;;;5067988;28;20672;-75
2022/05/27 08:42:26;;;;;;;5.60;1.97;;;16.10;99.90;;;;;;5063100;28;20223;-75
2022/05/27 08:44:59;;;;;;;5.77;1.87;;;16.20;99.90;;;;;;5068107;28;20196;-75
2022/05/27 08:47:30;;;;;;;3.87;1.60;;;16.10;99.90;;;;;;5068297;28;20665;-75
2022/05/27 08:50:07;;;;;;;3.57;1.60;;;15.80;99.90;;;;;;5068528;28;20231;-75
2022/05/27 08:52:42;;;;;;;3.20;1.70;;;15.90;99.90;;;;;;5068141;28;20195;-75
2022/05/27 09:01:11;;;;;;;5.37;2.30;;;16.20;99.90;;;;;;5028437;28;20330;-75
2022/05/27 09:03:44;;;;;;;4.50;2.40;;;16.20;99.90;;;;;;5064811;28;20196;-75
2022/05/27 09:06:12;;;;;;;2.70;1.43;;;16.30;99.90;;;;;;5047811;28;20790;-75
2022/05/27 09:08:39;;;;;;;2.93;1.43;;;16.50;99.90;;;;;;5047315;28;21090;-75
2022/05/27 09:11:17;;;;;;;3.80;2.50;;;16.50;99.90;;;;;;5047363;28;20208;-75
2022/05/27 09:13:52;;;;;;;3.90;1.97;;;16.30;99.90;;;;;;5047278;28;20196;-75
2022/05/27 09:16:29;;;;;;;2.97;1.67;;;16.20;99.90;;;;;;5048410;28;20741;-75
2022/05/27 09:19:05;;;;;;;6.80;1.50;;;16.30;99.90;;;;;;5067425;28;20223;-75
2022/05/27 09:21:40;;;;;;;4.07;1.70;;;16.30;99.90;;;;;;5054812;28;20239;-75
2022/05/27 09:24:26;;;;;;;3.40;2.17;;;16.30;99.90;;;;;;5047312;28;20192;-75
2022/05/27 09:27:02;;;;;;;3.03;1.60;;;16.40;99.90;;;;;;5049015;28;20658;-76
2022/05/27 09:29:44;;;;;;;4.67;1.73;;;16.40;99.90;;;;;;5067005;28;20304;-75
2022/05/27 09:32:16;;;;;;;5.17;1.50;;;16.30;99.90;;;;;;5067455;28;20276;-75
2022/05/27 09:34:49;;;;;;;1.97;1.50;;;16.40;99.90;;;;;;5066084;28;20253;-77
2022/05/27 09:37:24;;;;;;;3.03;1.83;;;16.40;99.90;;;;;;5066949;28;20203;-75
2022/05/27 09:39:52;;;;;;;2.83;1.70;;;16.50;99.90;;;;;;5064719;28;20660;-75
2022/05/27 09:42:27;;;;;;;5.70;1.90;;;16.40;99.90;;;;;;5050958;28;20317;-75
2022/05/27 09:44:55;;;;;;;5.30;2.00;;;16.50;99.90;;;;;;5067427;28;20195;-75
2022/05/27 09:47:24;;;;;;;3.90;1.90;;;16.60;99.90;;;;;;5067225;28;20669;-75
2022/05/27 09:49:56;;;;;;;3.97;1.93;;;16.80;99.90;;;;;;5064667;28;20223;-75
2022/05/27 09:52:24;;;;;;;4.30;1.73;;;16.90;99.90;;;;;;5065407;28;20575;-75
2022/05/27 09:54:54;;;;;;;3.30;1.90;;;17.10;99.90;;;;;;5067365;28;20211;-75
2022/05/27 09:57:25;;;;;;;5.17;2.20;;;17.20;99.90;;;;;;5067369;28;20203;-75
2022/05/27 09:59:56;;;;;;;2.57;1.70;;;17.40;99.90;;;;;;5065837;28;20203;-75
2022/05/27 10:02:27;;;;;;;3.60;1.70;;;17.30;99.40;;;;;;5066822;28;20218;-75
2022/05/27 10:04:57;;;;;;;4.83;1.47;;;17.20;99.00;;;;;;5066594;28;20196;-75
2022/05/27 10:07:37;;;;;;;3.77;2.10;;;17.00;99.90;;;;;;5066468;28;20211;-75
2022/05/27 10:10:24;;;;;;;5.33;2.03;;;17.00;99.90;;;;;;5066487;28;20223;-75
2022/05/27 10:12:53;;;;;;;3.93;2.00;;;16.70;99.90;;;;;;5066242;28;20192;-75
2022/05/27 10:15:32;;;;;;;7.23;2.03;;;16.50;99.90;;;;;;5066693;28;20207;-75
2022/05/27 10:18:14;;;;;;;5.07;2.00;;;16.70;99.90;;;;;;5059633;28;20241;-75
2022/05/27 10:20:42;;;;;;;2.83;1.63;;;16.70;99.90;;;;;;5066173;28;20199;-75
2022/05/27 10:23:11;;;;;;;4.50;2.07;;;16.80;99.90;;;;;;5066447;28;20768;-75
2022/05/27 10:25:42;;;;;;;3.30;2.10;;;16.50;99.60;;;;;;5049733;28;20212;-75
2022/05/27 10:28:11;;;;;;;4.00;2.00;;;16.40;99.90;;;;;;5066759;28;20206;-75
2022/05/27 10:30:41;;;;;;;4.23;1.83;;;16.50;99.90;;;;;;5055598;28;20817;-75
2022/05/27 10:33:17;;;;;;;2.63;1.63;;;16.50;99.90;;;;;;5046850;28;20584;-75
2022/05/27 10:35:45;;;;;;;4.37;1.90;;;16.50;99.90;;;;;;5046785;28;20200;-75
2022/05/27 10:38:29;;;;;;;3.23;2.00;;;16.70;99.90;;;;;;5055158;28;20228;-75
2022/05/27 10:41:04;;;;;;;5.27;2.07;;;17.00;99.90;;;;;;5052957;28;20231;-75
2022/05/27 10:43:54;;;;;;;4.30;1.73;;;17.10;99.90;;;;;;5046095;28;20643;-75
2022/05/27 10:46:28;;;;;;;4.37;1.47;;;17.30;99.90;;;;;;5045925;28;20202;-75
2022/05/27 10:49:23;;;;;;;4.60;2.00;;;17.30;99.90;;;;;;5064646;28;20239;-75
2022/05/27 10:52:05;;;;;;;6.20;2.20;;;17.50;99.60;;;;;;5045710;28;20208;-75
2022/05/27 10:54:46;;;;;;;2.83;1.80;;;17.40;99.20;;;;;;5059069;28;20426;-75
2022/05/27 11:03:39;;;;;;;2.87;1.90;;;17.50;97.30;;;;;;5063953;28;20202;-73
2022/05/27 11:06:19;;;;;;;3.80;1.93;;;17.10;96.70;;;;;;5065880;28;20199;-73
2022/05/27 11:08:54;;;;;;;4.10;1.60;;;17.00;97.60;;;;;;5066481;28;20195;-73
2022/05/27 11:11:30;;;;;;;5.57;1.57;;;17.00;97.70;;;;;;5051482;28;20203;-73
2022/05/27 11:17:18;;;;;;;4.73;2.30;;;16.90;97.60;;;;;;5048266;28;20238;-74
2022/05/27 11:20:08;;;;;;;4.77;2.00;;;16.80;97.60;;;;;;5064145;28;20300;-73
2022/05/27 11:22:38;;;;;;;3.07;1.60;;;16.90;97.80;;;;;;5067855;28;20252;-74
2022/05/27 11:25:29;;;;;;;4.57;1.73;;;17.00;98.30;;;;;;5060521;28;20212;-74
2022/05/27 11:28:14;;;;;;;4.33;1.80;;;17.40;98.20;;;;;;5047357;28;20193;-74
2022/05/27 11:30:52;;;;;;;3.07;1.63;;;17.70;98.60;;;;;;5056857;28;20196;-75
2022/05/27 11:33:38;;;;;;;6.80;1.87;;;17.60;98.10;;;;;;5067497;28;20241;-74
2022/05/27 11:36:21;;;;;;;5.00;2.13;;;17.30;97.90;;;;;;5067453;28;20573;-74
2022/05/27 11:39:26;;;;;;;6.67;2.10;;;17.30;98.10;;;;;;5067031;28;20374;-74
2022/05/27 11:42:04;;;;;;;5.07;2.00;;;17.10;98.60;;;;;;5047628;28;20710;-74
2022/05/27 11:44:41;;;;;;;4.50;2.00;;;16.70;98.80;;;;;;5057499;28;20196;-75
2022/05/27 11:47:19;;;;;;;8.10;2.23;;;16.30;99.90;;;;;;5066072;28;20203;-74
2022/05/27 11:50:01;;;;;;;5.37;1.80;;;16.20;99.90;;;;;;5067413;28;20219;-74
2022/05/27 11:52:42;;;;;;;4.37;2.10;;;16.00;99.90;;;;;;5067579;28;20222;-74
2022/05/27 11:55:36;;;;;;;4.93;2.30;;;15.90;99.90;;;;;;5067313;28;20196;-74
2022/05/27 11:58:13;;;;;;;6.33;1.73;;;16.00;99.90;;;;;;5070051;28;20563;-74
2022/05/27 12:00:44;;;;;;;7.63;1.93;;;16.10;99.90;;;;;;5071607;28;20195;-74
2022/05/27 12:03:16;;;;;;;6.23;4.10;;;16.40;99.90;;;;;;5071644;28;20191;-74
2022/05/27 12:05:47;;;;;;;5.87;3.63;;;16.70;99.90;;;;;;5070984;28;20722;-74
2022/05/27 12:08:22;;;;;;;3.13;1.70;;;17.00;99.90;;;;;;5070797;28;20740;-74
2022/05/27 12:10:54;;;;;;;6.23;2.03;;;17.00;99.90;;;;;;5070972;28;20191;-74
2022/05/27 12:13:27;;;;;;;4.73;2.33;;;17.20;99.90;;;;;;5051361;28;20242;-74
2022/05/27 12:15:57;;;;;;;5.37;1.80;;;17.50;99.90;;;;;;5051822;28;20192;-74
2022/05/27 12:18:29;;;;;;;2.23;1.47;;;17.70;99.90;;;;;;5065503;28;20284;-74
2022/05/27 12:20:57;;;;;;;3.03;1.50;;;18.00;99.90;;;;;;5070870;28;20559;-74
2022/05/27 12:23:28;;;;;;;6.63;2.23;;;18.30;99.90;;;;;;5070624;28;20211;-74
2022/05/27 12:26:00;;;;;;;4.10;1.80;;;18.40;98.30;;;;;;5070333;28;21103;-74
2022/05/27 12:28:31;;;;;;;5.37;1.83;;;18.50;97.30;;;;;;5070715;28;20206;-74
2022/05/27 12:31:00;;;;;;;3.70;1.83;;;18.50;97.30;;;;;;5070627;28;20192;-74
2022/05/27 12:33:29;;;;;;;2.70;1.57;;;18.80;97.00;;;;;;5070602;28;20215;-74
2022/05/27 12:36:04;;;;;;;9.20;2.30;;;18.60;96.70;;;;;;5070405;28;20231;-74
2022/05/27 12:38:34;;;;;;;4.50;1.47;;;18.10;96.00;;;;;;5054513;28;20220;-74
2022/05/27 12:41:04;;;;;;;5.80;1.87;;;17.90;97.10;;;;;;5066834;28;20357;-73
2022/05/27 12:43:33;;;;;;;4.90;1.87;;;17.70;97.00;;;;;;5070411;28;20687;-74
2022/05/27 12:46:29;;;;;;;4.80;1.83;;;17.40;98.20;;;;;;5069772;28;20261;-73
2022/05/27 12:49:32;;;;;;;2.83;1.57;;;17.50;98.90;;;;;;5038969;28;20251;-73
2022/05/27 12:52:01;;;;;;;4.33;1.70;;;18.20;98.60;;;;;;5050322;28;20196;-73
2022/05/27 12:55:00;;;;;;;5.17;1.80;;;18.30;97.00;;;;;;5050076;28;20215;-73
2022/05/27 13:00:59;;;;;;;4.57;1.77;;;19.20;96.50;;;;;;5067640;28;20693;-74
2022/05/27 13:03:51;;;;;;;4.27;2.10;;;19.30;96.10;;;;;;5069594;28;20208;-73
2022/05/27 13:06:42;;;;;;;3.23;1.40;;;19.80;95.20;;;;;;5050656;28;20294;-73
2022/05/27 13:09:32;;;;;;;3.77;1.53;;;20.30;96.30;;;;;;5049459;28;20250;-73
2022/05/27 13:11:59;;;;;;;4.80;1.50;;;20.10;93.50;;;;;;5069371;28;20265;-73
2022/05/27 13:14:41;;;;;;;6.00;1.80;;;19.70;92.80;;;;;;5062664;28;20265;-74
2022/05/27 13:17:10;;;;;;;4.87;1.70;;;19.90;93.10;;;;;;5062621;28;20222;-74
2022/05/27 13:19:43;;;;;;;4.43;1.30;;;20.30;92.40;;;;;;5069473;28;20267;-74
2022/05/27 13:22:14;;;;;;;4.73;1.87;;;20.20;93.10;;;;;;5051720;28;20582;-73
2022/05/27 13:24:47;;;;;;;5.27;1.57;;;19.60;91.40;;;;;;5049673;28;20200;-73
2022/05/27 13:27:26;;;;;;;5.03;2.70;;;19.30;92.50;;;;;;5052953;28;20199;-73
2022/05/27 13:30:06;;;;;;;9.77;4.27;;;18.80;92.30;;;;;;5069474;28;20813;-75
2022/05/27 13:32:36;;;;;;;8.37;3.40;;;18.30;93.10;;;;;;5064499;28;20224;-75
2022/05/27 13:35:09;;;;;;;5.00;2.83;;;18.10;93.70;;;;;;5048254;28;20630;-75
2022/05/27 13:37:47;;;;;;;4.63;1.90;;;18.10;94.10;;;;;;5052316;28;20572;-75
2022/05/27 13:40:21;;;;;;;3.43;1.80;;;18.10;94.20;;;;;;5068729;28;20216;-75
2022/05/27 13:42:49;;;;;;;6.13;1.83;;;18.40;93.30;;;;;;5068607;28;20633;-76
2022/05/27 13:45:34;;;;;;;4.97;1.50;;;18.70;93.20;;;;;;5069426;28;20563;-76
2022/05/27 13:48:06;;;;;;;2.87;1.47;;;19.10;92.30;;;;;;5069217;28;20257;-76
2022/05/27 13:50:35;;;;;;;3.57;1.83;;;19.30;92.70;;;;;;5069617;28;20200;-76